createdAt,value
2019-05-19T00:01:13.253Z,79.20
2019-05-19T00:03:43.008Z,79.20
2019-05-19T00:06:12.869Z,79.30
2019-05-19T00:08:42.702Z,79.90
2019-05-19T00:11:12.601Z,80.50
2019-05-19T00:13:42.190Z,79.90
2019-05-19T00:16:12.126Z,80.30
2019-05-19T00:18:41.849Z,80.30
2019-05-19T00:21:11.956Z,80.50
2019-05-19T00:23:41.533Z,80.50
2019-05-19T00:26:11.700Z,80.90
2019-05-19T00:28:41.329Z,81.40
2019-05-19T00:31:11.050Z,81.70
2019-05-19T00:33:40.778Z,81.90
2019-05-19T00:36:10.514Z,82.10
2019-05-19T00:38:39.974Z,82.30
2019-05-19T00:41:09.847Z,82.50
2019-05-19T00:43:39.655Z,83.40
2019-05-19T00:46:09.253Z,82.80
2019-05-19T00:48:39.145Z,83.10
2019-05-19T00:51:08.690Z,83.50
2019-05-19T00:53:38.497Z,83.70
2019-05-19T00:56:09.456Z,84.10
2019-05-19T00:58:39.206Z,84.30
2019-05-19T01:01:08.825Z,84.70
2019-05-19T01:03:38.648Z,85.00
2019-05-19T01:06:08.446Z,85.30
2019-05-19T01:08:39.364Z,85.60
2019-05-19T01:11:11.498Z,86.00
2019-05-19T01:13:41.126Z,86.20
2019-05-19T01:16:10.887Z,86.50
2019-05-19T01:18:40.916Z,86.80
2019-05-19T01:21:10.671Z,87.20
2019-05-19T01:23:40.461Z,87.40
2019-05-19T01:26:10.164Z,87.70
2019-05-19T01:28:39.707Z,87.80
2019-05-19T01:31:09.412Z,87.80
2019-05-19T01:33:38.961Z,87.60
2019-05-19T01:36:09.038Z,87.60
2019-05-19T01:38:38.823Z,88.10
2019-05-19T01:41:08.593Z,88.30
2019-05-19T01:43:38.251Z,88.50
2019-05-19T01:46:08.227Z,88.50
2019-05-19T01:48:37.831Z,88.90
2019-05-19T01:51:08.605Z,89.40
2019-05-19T01:53:38.354Z,89.50
2019-05-19T01:56:08.318Z,89.70
2019-05-19T01:58:37.958Z,89.70
2019-05-19T02:01:07.648Z,90.20
2019-05-19T02:03:37.315Z,89.50
2019-05-19T02:06:07.229Z,89.70
2019-05-19T02:08:36.941Z,89.80
2019-05-19T02:11:07.054Z,89.60
2019-05-19T02:13:37.695Z,89.50
2019-05-19T02:16:07.575Z,90.20
2019-05-19T02:18:37.420Z,89.90
2019-05-19T02:21:07.084Z,90.00
2019-05-19T02:23:36.762Z,90.00
2019-05-19T02:26:06.583Z,90.00
2019-05-19T02:28:36.244Z,90.00
2019-05-19T02:31:06.519Z,90.20
2019-05-19T02:33:36.269Z,90.20
2019-05-19T02:36:06.005Z,90.20
2019-05-19T02:38:35.694Z,90.20
2019-05-19T02:41:05.401Z,90.20
2019-05-19T02:43:35.569Z,90.10
2019-05-19T02:46:05.436Z,90.20
2019-05-19T02:48:35.149Z,90.10
2019-05-19T02:51:05.086Z,90.10
2019-05-19T02:53:34.710Z,90.30
2019-05-19T02:56:04.403Z,90.50
2019-05-19T02:58:34.304Z,90.40
2019-05-19T03:01:04.151Z,90.80
2019-05-19T03:03:34.036Z,91.10
2019-05-19T03:06:03.528Z,91.30
2019-05-19T03:08:32.959Z,91.70
2019-05-19T03:11:02.611Z,91.90
2019-05-19T03:13:32.184Z,92.00
2019-05-19T03:16:01.728Z,92.30
2019-05-19T03:18:31.380Z,92.40
2019-05-19T03:21:10.285Z,92.40
2019-05-19T03:23:32.322Z,92.60
2019-05-19T03:26:01.964Z,92.90
2019-05-19T03:28:31.511Z,92.60
2019-05-19T03:31:19.097Z,92.60
2019-05-19T03:33:50.127Z,92.70
2019-05-19T03:36:19.694Z,92.80
2019-05-19T03:38:49.249Z,92.70
2019-05-19T03:41:18.941Z,92.80
2019-05-19T03:43:48.439Z,92.90
2019-05-19T03:46:18.063Z,92.90
2019-05-19T03:48:47.731Z,92.90
2019-05-19T03:51:29.978Z,92.90
2019-05-19T03:53:48.445Z,92.90
2019-05-19T03:56:17.986Z,93.00
2019-05-19T03:58:47.720Z,93.00
2019-05-19T04:01:17.569Z,92.80
2019-05-19T04:03:47.014Z,92.80
2019-05-19T04:06:16.580Z,93.00
2019-05-19T04:08:46.537Z,93.10
2019-05-19T04:11:16.336Z,93.00
2019-05-19T04:13:46.521Z,92.90
2019-05-19T04:16:16.244Z,92.80
2019-05-19T04:18:45.954Z,92.60
2019-05-19T04:21:15.568Z,92.50
2019-05-19T04:23:45.246Z,92.40
2019-05-19T04:26:14.807Z,92.20
2019-05-19T04:28:44.756Z,92.10
2019-05-19T04:31:14.412Z,92.00
2019-05-19T04:33:43.984Z,91.90
2019-05-19T04:36:13.387Z,91.80
2019-05-19T04:38:42.930Z,91.90
2019-05-19T04:41:12.484Z,91.90
2019-05-19T04:43:43.231Z,91.70
2019-05-19T04:46:13.260Z,91.70
2019-05-19T04:48:42.755Z,91.60
2019-05-19T04:51:12.475Z,91.70
2019-05-19T04:53:41.906Z,91.90
2019-05-19T04:56:11.636Z,92.00
2019-05-19T04:58:43.377Z,92.10
2019-05-19T05:01:13.605Z,92.30
2019-05-19T05:03:43.252Z,92.10
2019-05-19T05:06:12.882Z,92.20
2019-05-19T05:08:42.422Z,92.10
2019-05-19T05:11:11.950Z,92.10
2019-05-19T05:13:41.720Z,92.00
2019-05-19T05:16:11.272Z,91.90
2019-05-19T05:18:40.967Z,91.80
2019-05-19T05:21:10.586Z,91.70
2019-05-19T05:23:40.288Z,91.50
2019-05-19T05:26:09.880Z,91.00
2019-05-19T05:28:39.444Z,91.40
2019-05-19T05:31:09.182Z,91.30
2019-05-19T05:33:38.760Z,91.10
2019-05-19T05:36:08.274Z,90.70
2019-05-19T05:38:37.938Z,90.60
2019-05-19T05:41:07.485Z,90.10
2019-05-19T05:43:37.354Z,90.10
2019-05-19T05:46:06.832Z,90.10
2019-05-19T05:48:36.613Z,89.70
2019-05-19T05:51:06.598Z,89.70
2019-05-19T05:53:36.504Z,89.10
2019-05-19T05:56:07.289Z,87.50
2019-05-19T05:58:36.830Z,89.20
2019-05-19T06:01:06.331Z,86.10
2019-05-19T06:03:35.804Z,86.10
2019-05-19T06:06:05.649Z,85.80
2019-05-19T06:08:35.640Z,85.60
2019-05-19T06:11:05.580Z,85.20
2019-05-19T06:13:34.988Z,85.70
2019-05-19T06:16:05.377Z,85.30
2019-05-19T06:18:34.914Z,85.10
2019-05-19T06:21:04.477Z,85.10
2019-05-19T06:23:34.430Z,85.10
2019-05-19T06:26:04.126Z,85.00
2019-05-19T06:28:40.951Z,84.50
2019-05-19T06:31:10.566Z,84.40
2019-05-19T06:33:40.250Z,83.40
2019-05-19T06:36:09.851Z,83.80
2019-05-19T06:38:39.455Z,82.00
2019-05-19T06:41:09.038Z,81.80
2019-05-19T06:43:38.927Z,80.20
2019-05-19T06:46:08.590Z,79.80
2019-05-19T06:48:38.165Z,79.30
2019-05-19T06:51:07.883Z,80.20
2019-05-19T06:53:37.603Z,80.50
2019-05-19T06:56:07.521Z,79.20
2019-05-19T06:58:37.483Z,79.30
2019-05-19T07:01:07.183Z,77.00
2019-05-19T07:03:36.932Z,75.10
2019-05-19T07:06:06.571Z,75.20
2019-05-19T07:08:36.263Z,76.20
2019-05-19T07:11:05.751Z,75.20
2019-05-19T07:13:35.242Z,74.40
2019-05-19T07:16:04.975Z,75.00
2019-05-19T07:18:34.576Z,72.60
2019-05-19T07:21:04.197Z,71.50
2019-05-19T07:23:34.899Z,70.90
2019-05-19T07:26:04.745Z,69.40
2019-05-19T07:28:34.342Z,67.40
2019-05-19T07:31:03.925Z,67.50
2019-05-19T07:33:33.550Z,66.10
2019-05-19T07:36:03.096Z,66.60
2019-05-19T07:38:32.975Z,64.00
2019-05-19T07:41:02.555Z,63.30
2019-05-19T07:43:32.424Z,63.20
2019-05-19T07:46:02.207Z,64.00
2019-05-19T07:48:31.764Z,64.10
2019-05-19T07:51:01.528Z,61.80
2019-05-19T07:53:42.542Z,59.60
2019-05-19T07:56:03.016Z,58.90
2019-05-19T07:58:32.643Z,54.60
2019-05-19T08:01:02.416Z,55.30
2019-05-19T08:03:31.952Z,55.30
2019-05-19T08:06:01.967Z,54.80
2019-05-19T08:08:31.985Z,54.70
2019-05-19T08:11:05.160Z,53.20
2019-05-19T08:13:34.833Z,53.00
2019-05-19T08:16:04.491Z,51.80
2019-05-19T08:18:34.244Z,51.00
2019-05-19T08:21:03.984Z,50.50
2019-05-19T08:23:33.565Z,50.60
2019-05-19T08:26:03.279Z,51.40
2019-05-19T08:28:44.799Z,50.90
2019-05-19T08:31:14.366Z,51.00
2019-05-19T08:33:44.244Z,48.00
2019-05-19T08:36:14.296Z,46.60
2019-05-19T08:38:45.885Z,46.80
2019-05-19T08:41:15.830Z,49.90
2019-05-19T08:43:45.555Z,51.00
2019-05-19T08:46:15.537Z,50.60
2019-05-19T08:48:45.237Z,49.50
2019-05-19T08:51:15.006Z,49.00
2019-05-19T08:53:44.842Z,51.00
2019-05-19T08:56:14.709Z,51.20
2019-05-19T08:58:44.400Z,49.00
2019-05-19T09:01:14.256Z,48.80
2019-05-19T09:03:44.037Z,47.60
2019-05-19T09:06:13.845Z,47.50
2019-05-19T09:08:43.560Z,46.30
2019-05-19T09:11:13.252Z,45.10
2019-05-19T09:13:43.185Z,43.40
2019-05-19T09:16:13.103Z,42.10
2019-05-19T09:18:42.742Z,43.90
2019-05-19T09:21:12.423Z,46.80
2019-05-19T09:23:42.234Z,46.70
2019-05-19T09:26:12.125Z,45.30
2019-05-19T09:28:41.814Z,45.30
2019-05-19T09:31:12.709Z,43.70
2019-05-19T09:33:42.502Z,43.50
2019-05-19T09:36:12.113Z,46.50
2019-05-19T09:38:42.137Z,46.70
2019-05-19T09:41:13.252Z,46.40
2019-05-19T09:43:43.923Z,46.90
2019-05-19T09:46:14.059Z,47.60
2019-05-19T09:48:44.040Z,47.50
2019-05-19T09:51:13.814Z,47.60
2019-05-19T09:53:43.455Z,48.00
2019-05-19T09:56:13.275Z,46.40
2019-05-19T09:58:43.069Z,45.90
2019-05-19T10:01:13.313Z,44.40
2019-05-19T10:03:42.991Z,43.70
2019-05-19T10:06:12.781Z,42.80
2019-05-19T10:08:44.387Z,41.90
2019-05-19T10:11:36.938Z,42.60
2019-05-19T10:14:06.462Z,42.70
2019-05-19T10:16:36.423Z,43.40
2019-05-19T10:19:06.080Z,42.00
2019-05-19T10:21:35.628Z,42.20
2019-05-19T10:24:05.269Z,41.80
2019-05-19T10:26:34.786Z,41.70
2019-05-19T10:29:04.918Z,40.50
2019-05-19T10:31:34.896Z,39.70
2019-05-19T10:34:09.245Z,39.80
2019-05-19T10:36:38.994Z,40.10
2019-05-19T10:39:08.572Z,38.80
2019-05-19T10:41:38.275Z,37.90
2019-05-19T10:44:07.859Z,39.00
2019-05-19T10:46:37.768Z,38.30
2019-05-19T10:49:07.244Z,37.10
2019-05-19T10:51:36.782Z,37.40
2019-05-19T10:54:06.604Z,38.10
2019-05-19T10:56:36.154Z,37.90
2019-05-19T10:59:05.791Z,38.90
2019-05-19T11:01:35.526Z,39.00
2019-05-19T11:04:05.263Z,38.30
2019-05-19T11:06:34.929Z,39.90
2019-05-19T11:09:06.131Z,39.60
2019-05-19T11:11:35.850Z,41.40
2019-05-19T11:14:05.508Z,42.30
2019-05-19T11:16:35.432Z,41.20
2019-05-19T11:19:04.992Z,43.40
2019-05-19T11:21:35.065Z,46.80
2019-05-19T11:24:04.747Z,47.40
2019-05-19T11:26:34.471Z,46.40
2019-05-19T11:29:04.004Z,45.70
2019-05-19T11:31:33.768Z,45.50
2019-05-19T11:34:03.719Z,46.10
2019-05-19T11:36:33.408Z,45.20
2019-05-19T11:39:02.931Z,44.40
2019-05-19T11:41:32.768Z,44.30
2019-05-19T11:44:03.892Z,43.90
2019-05-19T11:46:34.463Z,45.60
2019-05-19T11:49:05.040Z,46.40
2019-05-19T11:51:34.793Z,47.20
2019-05-19T11:54:04.574Z,47.30
2019-05-19T11:56:34.217Z,47.50
2019-05-19T11:59:03.856Z,45.10
2019-05-19T12:01:33.588Z,42.70
2019-05-19T12:04:03.372Z,40.30
2019-05-19T12:06:39.278Z,37.50
2019-05-19T12:09:06.657Z,35.30
2019-05-19T12:11:36.308Z,37.40
2019-05-19T12:14:06.096Z,37.50
2019-05-19T12:16:35.646Z,38.70
2019-05-19T12:19:05.427Z,41.50
2019-05-19T12:21:35.186Z,42.30
2019-05-19T12:24:04.939Z,40.50
2019-05-19T12:26:35.007Z,41.90
2019-05-19T12:29:04.776Z,42.10
2019-05-19T12:31:34.444Z,39.60
2019-05-19T12:34:04.131Z,38.20
2019-05-19T12:36:33.913Z,38.60
2019-05-19T12:39:05.991Z,38.50
2019-05-19T12:41:35.834Z,37.20
2019-05-19T12:44:05.404Z,35.90
2019-05-19T12:46:35.058Z,37.20
2019-05-19T12:49:04.808Z,38.60
2019-05-19T12:51:34.525Z,38.90
2019-05-19T12:54:04.245Z,39.30
2019-05-19T12:56:39.643Z,39.00
2019-05-19T12:59:05.174Z,39.20
2019-05-19T13:01:34.742Z,38.90
2019-05-19T13:04:04.370Z,38.80
2019-05-19T13:06:33.852Z,38.10
2019-05-19T13:09:05.153Z,38.30
2019-05-19T13:11:35.083Z,38.50
2019-05-19T13:14:04.691Z,39.70
2019-05-19T13:16:34.164Z,41.00
2019-05-19T13:19:03.789Z,39.90
2019-05-19T13:21:33.535Z,40.90
2019-05-19T13:24:03.230Z,40.10
2019-05-19T13:26:32.944Z,39.20
2019-05-19T13:29:02.543Z,39.20
2019-05-19T13:31:33.156Z,39.60
2019-05-19T13:34:02.737Z,38.30
2019-05-19T13:36:32.368Z,41.20
2019-05-19T13:39:02.026Z,43.60
2019-05-19T13:41:33.349Z,43.30
2019-05-19T13:44:03.467Z,42.20
2019-05-19T13:46:33.335Z,39.60
2019-05-19T13:49:03.276Z,40.40
2019-05-19T13:51:33.141Z,42.10
2019-05-19T13:54:02.808Z,42.50
2019-05-19T13:56:33.593Z,44.20
2019-05-19T13:59:03.637Z,45.00
2019-05-19T14:01:33.750Z,45.00
2019-05-19T14:04:04.443Z,44.50
2019-05-19T14:06:34.228Z,44.90
2019-05-19T14:09:04.954Z,44.30
2019-05-19T14:11:34.907Z,43.90
2019-05-19T14:14:04.689Z,44.30
2019-05-19T14:16:34.419Z,44.30
2019-05-19T14:19:04.314Z,45.00
2019-05-19T14:21:34.180Z,44.80
2019-05-19T14:24:03.739Z,45.10
2019-05-19T14:26:33.258Z,45.30
2019-05-19T14:29:03.040Z,46.30
2019-05-19T14:31:32.801Z,46.20
2019-05-19T14:34:02.220Z,45.00
2019-05-19T14:36:31.683Z,44.10
2019-05-19T14:39:05.424Z,44.20
2019-05-19T14:41:37.114Z,42.70
2019-05-19T14:44:06.580Z,42.40
2019-05-19T14:46:37.266Z,40.80
2019-05-19T14:49:06.919Z,41.90
2019-05-19T14:51:36.704Z,41.30
2019-05-19T14:54:06.604Z,40.80
2019-05-19T14:56:36.197Z,41.00
2019-05-19T14:59:05.652Z,40.90
2019-05-19T15:01:35.460Z,42.60
2019-05-19T15:04:05.802Z,43.20
2019-05-19T15:06:35.774Z,44.20
2019-05-19T15:09:06.496Z,44.00
2019-05-19T15:11:37.036Z,44.00
2019-05-19T15:14:06.819Z,43.00
2019-05-19T15:16:36.417Z,42.40
2019-05-19T15:19:06.335Z,42.30
2019-05-19T15:21:36.315Z,42.40
2019-05-19T15:24:06.360Z,41.10
2019-05-19T15:26:35.792Z,41.20
2019-05-19T15:29:06.523Z,43.60
2019-05-19T15:31:36.479Z,44.80
2019-05-19T15:34:09.835Z,45.60
2019-05-19T15:36:39.608Z,45.30
2019-05-19T15:39:09.466Z,45.00
2019-05-19T15:41:39.420Z,44.40
2019-05-19T15:44:10.165Z,43.50
2019-05-19T15:46:39.833Z,42.00
2019-05-19T15:49:09.426Z,42.20
2019-05-19T15:51:39.792Z,41.60
2019-05-19T15:54:09.458Z,41.70
2019-05-19T15:56:40.393Z,41.30
2019-05-19T15:59:10.677Z,43.90
2019-05-19T16:01:40.522Z,45.70
2019-05-19T16:04:10.576Z,47.90
2019-05-19T16:06:40.961Z,49.30
2019-05-19T16:09:12.070Z,52.10
2019-05-19T16:11:42.470Z,52.00
2019-05-19T16:14:15.350Z,53.20
2019-05-19T16:16:45.770Z,53.30
2019-05-19T16:19:15.335Z,52.50
2019-05-19T16:21:44.986Z,52.50
2019-05-19T16:24:14.951Z,53.20
2019-05-19T16:26:44.572Z,54.20
2019-05-19T16:29:14.252Z,55.00
2019-05-19T16:31:43.947Z,55.80
2019-05-19T16:34:13.831Z,56.10
2019-05-19T16:36:43.605Z,57.10
2019-05-19T16:39:13.157Z,57.60
2019-05-19T16:41:42.818Z,57.90
2019-05-19T16:44:12.892Z,58.30
2019-05-19T16:46:42.438Z,58.60
2019-05-19T16:49:12.335Z,58.80
2019-05-19T16:51:42.176Z,59.20
2019-05-19T16:54:19.682Z,59.10
2019-05-19T16:56:49.671Z,59.80
2019-05-19T16:59:19.484Z,59.00
2019-05-19T17:01:49.509Z,58.40
2019-05-19T17:04:19.311Z,59.50
2019-05-19T17:06:49.067Z,60.70
2019-05-19T17:09:19.146Z,61.60
2019-05-19T17:11:49.070Z,62.10
2019-05-19T17:14:20.036Z,63.10
2019-05-19T17:16:49.821Z,62.60
2019-05-19T17:19:20.409Z,63.00
2019-05-19T17:21:49.887Z,63.70
2019-05-19T17:24:19.579Z,64.30
2019-05-19T17:26:49.297Z,64.80
2019-05-19T17:29:19.189Z,65.40
2019-05-19T17:31:48.947Z,65.80
2019-05-19T17:34:19.009Z,65.80
2019-05-19T17:36:48.807Z,65.00
2019-05-19T17:39:18.674Z,64.50
2019-05-19T17:41:48.472Z,65.10
2019-05-19T17:44:18.970Z,65.60
2019-05-19T17:46:49.150Z,65.50
2019-05-19T17:49:19.328Z,65.60
2019-05-19T17:51:49.041Z,65.70
2019-05-19T17:54:20.257Z,66.50
2019-05-19T17:56:50.297Z,65.90
2019-05-19T17:59:19.881Z,65.70
2019-05-19T18:01:49.856Z,65.60
2019-05-19T18:04:19.705Z,65.90
2019-05-19T18:06:49.648Z,65.90
2019-05-19T18:09:19.930Z,65.70
2019-05-19T18:11:49.616Z,66.80
2019-05-19T18:14:19.493Z,66.60
2019-05-19T18:16:49.082Z,66.10
2019-05-19T18:19:19.078Z,66.10
2019-05-19T18:21:48.800Z,66.00
2019-05-19T18:24:18.457Z,68.00
2019-05-19T18:26:48.107Z,65.70
2019-05-19T18:29:30.575Z,67.40
2019-05-19T18:31:49.359Z,66.30
2019-05-19T18:34:19.012Z,67.10
2019-05-19T18:36:48.821Z,66.80
2019-05-19T18:39:18.516Z,67.20
2019-05-19T18:41:48.076Z,66.90
2019-05-19T18:44:18.795Z,68.50
2019-05-19T18:46:48.933Z,66.40
2019-05-19T18:49:18.553Z,66.20
2019-05-19T18:51:48.588Z,66.90
2019-05-19T18:54:18.320Z,66.90
2019-05-19T18:56:50.913Z,67.50
2019-05-19T18:59:19.901Z,68.00
2019-05-19T19:01:51.136Z,67.90
2019-05-19T19:04:21.164Z,68.40
2019-05-19T19:06:50.717Z,68.70
2019-05-19T19:09:22.333Z,69.40
2019-05-19T19:11:51.863Z,70.00
2019-05-19T19:14:21.921Z,70.60
2019-05-19T19:16:51.591Z,71.20
2019-05-19T19:19:25.174Z,71.70
2019-05-19T19:21:55.384Z,72.30
2019-05-19T19:24:24.836Z,72.60
2019-05-19T19:26:54.388Z,73.00
2019-05-19T19:29:24.227Z,73.00
2019-05-19T19:31:53.810Z,73.20
2019-05-19T19:34:23.386Z,73.00
2019-05-19T19:36:52.946Z,72.70
2019-05-19T19:39:22.475Z,72.20
2019-05-19T19:41:52.015Z,72.30
2019-05-19T19:44:21.411Z,72.00
2019-05-19T19:46:53.607Z,71.80
2019-05-19T19:49:22.293Z,72.30
2019-05-19T19:51:51.815Z,73.50
2019-05-19T19:54:21.518Z,73.30
2019-05-19T19:56:51.175Z,73.80
2019-05-19T19:59:22.451Z,74.00
2019-05-19T20:01:52.290Z,75.60
2019-05-19T20:04:22.530Z,75.40
2019-05-19T20:06:52.538Z,76.10
2019-05-19T20:09:22.662Z,76.90
2019-05-19T20:11:52.765Z,77.50
2019-05-19T20:14:26.765Z,78.50
2019-05-19T20:16:56.297Z,82.30
2019-05-19T20:19:26.025Z,81.40
2019-05-19T20:21:55.777Z,82.60
2019-05-19T20:24:27.299Z,83.30
2019-05-19T20:26:57.171Z,84.20
2019-05-19T20:29:26.751Z,84.80
2019-05-19T20:31:56.617Z,85.30
2019-05-19T20:34:26.214Z,86.00
2019-05-19T20:36:56.057Z,86.20
2019-05-19T20:39:26.525Z,86.20
2019-05-19T20:41:56.067Z,86.00
2019-05-19T20:44:26.887Z,86.10
2019-05-19T20:46:56.571Z,86.30
2019-05-19T20:49:25.999Z,86.10
2019-05-19T20:51:55.907Z,86.20
2019-05-19T20:54:25.604Z,85.70
2019-05-19T20:56:55.187Z,85.50
2019-05-19T20:59:24.819Z,85.70
2019-05-19T21:01:54.765Z,84.90
2019-05-19T21:04:24.225Z,84.20
2019-05-19T21:06:54.044Z,84.80
2019-05-19T21:09:23.839Z,85.50
2019-05-19T21:11:53.619Z,86.30
2019-05-19T21:14:23.505Z,87.00
2019-05-19T21:16:53.069Z,88.00
2019-05-19T21:19:23.033Z,88.70
2019-05-19T21:21:52.626Z,89.30
2019-05-19T21:24:22.308Z,89.70
2019-05-19T21:26:51.982Z,90.20
2019-05-19T21:29:21.760Z,90.40
2019-05-19T21:31:51.364Z,90.60
2019-05-19T21:34:21.059Z,91.20
2019-05-19T21:36:50.799Z,91.00
2019-05-19T21:39:20.301Z,91.20
2019-05-19T21:41:50.519Z,91.30
2019-05-19T21:44:19.973Z,91.50
2019-05-19T21:46:49.443Z,91.80
2019-05-19T21:49:19.227Z,91.60
2019-05-19T21:51:48.755Z,91.80
2019-05-19T21:54:18.382Z,91.70
2019-05-19T21:56:49.171Z,92.00
2019-05-19T21:59:18.785Z,92.30
2019-05-19T22:01:48.624Z,92.40
2019-05-19T22:04:18.525Z,92.60
2019-05-19T22:06:52.600Z,93.80
2019-05-19T22:09:22.454Z,92.90
2019-05-19T22:11:51.929Z,93.20
2019-05-19T22:14:21.632Z,93.60
2019-05-19T22:16:51.232Z,93.90
2019-05-19T22:19:21.055Z,94.20
2019-05-19T22:21:50.795Z,94.20
2019-05-19T22:24:20.470Z,94.60
2019-05-19T22:26:50.084Z,94.80
2019-05-19T22:29:21.330Z,94.90
2019-05-19T22:31:50.934Z,95.40
2019-05-19T22:34:20.758Z,95.20
2019-05-19T22:36:50.373Z,95.50
2019-05-19T22:39:20.186Z,96.20
2019-05-19T22:41:49.819Z,96.50
2019-05-19T22:44:20.422Z,96.90
2019-05-19T22:46:51.992Z,97.10
2019-05-19T22:49:22.590Z,97.20
2019-05-19T22:51:52.291Z,97.30
2019-05-19T22:54:22.870Z,97.40
2019-05-19T22:56:52.553Z,98.70
2019-05-19T22:59:22.668Z,97.80
2019-05-19T23:01:52.674Z,98.00
2019-05-19T23:04:22.281Z,98.10
2019-05-19T23:06:51.987Z,98.00
2019-05-19T23:09:21.952Z,98.10
2019-05-19T23:11:51.530Z,98.20
2019-05-19T23:14:21.190Z,98.30
2019-05-19T23:16:51.065Z,98.50
2019-05-19T23:19:20.752Z,98.60
2019-05-19T23:21:50.599Z,98.90
2019-05-19T23:24:20.087Z,99.10
2019-05-19T23:26:49.732Z,99.20
2019-05-19T23:29:19.719Z,99.40
2019-05-19T23:31:49.319Z,99.60
2019-05-19T23:34:19.154Z,99.50
2019-05-19T23:36:48.953Z,99.50
2019-05-19T23:39:18.469Z,99.50
2019-05-19T23:41:48.025Z,99.50
2019-05-19T23:44:17.717Z,99.30
2019-05-19T23:46:47.392Z,99.20
2019-05-19T23:49:16.989Z,98.90
2019-05-19T23:51:46.814Z,98.60
2019-05-19T23:54:16.246Z,98.50
2019-05-19T23:56:45.993Z,98.40
2019-05-19T23:59:15.442Z,98.10
